createdAt,value
2023-04-06T00:00:13.802Z,52.49
2023-04-06T00:05:08.799Z,52.24
2023-04-06T00:10:00.342Z,52.14
2023-04-06T00:14:51.685Z,51.90
2023-04-06T00:19:47.458Z,51.09
2023-04-06T00:24:40.422Z,51.27
2023-04-06T00:29:34.242Z,50.77
2023-04-06T00:34:32.366Z,50.95
2023-04-06T00:39:26.142Z,50.81
2023-04-06T00:44:22.526Z,51.04
2023-04-06T00:49:14.706Z,51.31
2023-04-06T00:54:06.728Z,50.66
2023-04-06T00:59:02.200Z,51.39
2023-04-06T01:03:56.103Z,51.15
2023-04-06T01:08:47.830Z,50.93
2023-04-06T01:13:45.468Z,50.80
2023-04-06T01:18:48.280Z,51.12
2023-04-06T01:23:53.341Z,50.86
2023-04-06T01:28:54.273Z,50.91
2023-04-06T01:33:50.900Z,51.45
2023-04-06T01:38:51.117Z,51.33
2023-04-06T01:43:49.443Z,51.58
2023-04-06T01:48:41.134Z,51.67
2023-04-06T01:53:45.434Z,52.68
2023-04-06T01:58:38.278Z,52.93
2023-04-06T02:03:32.230Z,53.07
2023-04-06T02:08:30.998Z,53.20
2023-04-06T02:13:24.333Z,53.61
2023-04-06T02:18:19.569Z,54.07
2023-04-06T02:23:14.872Z,53.97
2023-04-06T02:28:06.143Z,53.81
2023-04-06T02:32:59.539Z,53.04
2023-04-06T02:37:51.174Z,53.54
2023-04-06T02:42:45.308Z,53.98
2023-04-06T02:47:39.854Z,54.22
2023-04-06T02:52:33.920Z,54.94
2023-04-06T02:57:28.115Z,55.92
2023-04-06T03:02:25.692Z,56.98
2023-04-06T03:07:21.807Z,57.75
2023-04-06T03:12:12.869Z,58.14
2023-04-06T03:17:25.059Z,57.41
2023-04-06T03:22:18.432Z,56.01
2023-04-06T03:27:20.190Z,55.35
2023-04-06T03:32:14.774Z,55.24
2023-04-06T03:37:10.778Z,55.83
2023-04-06T03:42:10.489Z,56.11
2023-04-06T03:47:10.612Z,56.77
2023-04-06T03:52:01.186Z,57.28
2023-04-06T03:56:57.034Z,57.25
2023-04-06T04:01:53.729Z,57.59
2023-04-06T04:06:53.397Z,58.12
2023-04-06T04:11:44.635Z,58.48
2023-04-06T04:16:40.648Z,59.08
2023-04-06T04:21:34.687Z,59.03
2023-04-06T04:26:32.733Z,59.30
2023-04-06T04:31:25.897Z,59.25
2023-04-06T04:36:25.017Z,59.16
2023-04-06T04:41:18.418Z,59.31
2023-04-06T04:46:11.757Z,59.54
2023-04-06T04:51:06.741Z,59.98
2023-04-06T04:56:15.131Z,60.59
2023-04-06T05:01:09.690Z,60.71
2023-04-06T05:06:01.928Z,61.03
2023-04-06T05:10:57.695Z,61.18
2023-04-06T05:15:53.169Z,61.49
2023-04-06T05:20:55.606Z,62.23
2023-04-06T05:25:56.430Z,63.34
2023-04-06T05:30:49.418Z,63.69
2023-04-06T05:35:44.035Z,64.07
2023-04-06T05:40:42.672Z,64.38
2023-04-06T05:45:39.430Z,63.88
2023-04-06T05:50:31.896Z,64.16
2023-04-06T05:55:29.366Z,64.37
2023-04-06T06:00:35.935Z,64.90
2023-04-06T06:05:32.313Z,64.98
2023-04-06T06:10:33.295Z,64.87
2023-04-06T06:15:27.547Z,65.12
2023-04-06T06:20:19.089Z,65.15
2023-04-06T06:25:14.597Z,65.58
2023-04-06T06:30:11.477Z,65.64
2023-04-06T06:35:06.187Z,65.69
2023-04-06T06:39:59.015Z,65.83
2023-04-06T06:44:51.760Z,65.23
2023-04-06T06:49:45.460Z,65.07
2023-04-06T06:54:36.663Z,64.95
2023-04-06T06:59:27.982Z,65.07
2023-04-06T07:04:19.836Z,65.42
2023-04-06T07:09:16.151Z,65.52
2023-04-06T07:14:08.657Z,65.08
2023-04-06T07:19:03.128Z,65.55
2023-04-06T07:23:56.968Z,66.12
2023-04-06T07:28:50.858Z,65.92
2023-04-06T07:33:52.258Z,65.81
2023-04-06T07:38:44.092Z,66.07
2023-04-06T07:43:46.477Z,67.11
2023-04-06T07:48:42.430Z,67.64
2023-04-06T07:53:42.990Z,68.13
2023-04-06T07:58:37.458Z,68.78
2023-04-06T08:03:29.356Z,69.59
2023-04-06T08:08:24.494Z,70.22
2023-04-06T08:13:14.626Z,70.80
2023-04-06T08:18:04.571Z,72.16
2023-04-06T08:22:56.081Z,74.13
2023-04-06T08:27:50.168Z,70.26
2023-04-06T08:32:43.106Z,68.70
2023-04-06T08:37:37.859Z,67.87
2023-04-06T08:42:31.900Z,67.32
2023-04-06T08:47:25.109Z,67.19
2023-04-06T08:52:17.015Z,66.62
2023-04-06T08:57:16.317Z,67.17
2023-04-06T09:02:23.596Z,67.23
2023-04-06T09:07:18.124Z,67.22
2023-04-06T09:12:22.036Z,67.33
2023-04-06T09:17:13.283Z,67.79
2023-04-06T09:22:12.259Z,68.73
2023-04-06T09:27:06.643Z,70.53
2023-04-06T09:32:12.084Z,70.44
2023-04-06T09:37:07.927Z,69.13
2023-04-06T09:42:09.846Z,70.38
2023-04-06T09:47:13.488Z,71.53
2023-04-06T09:52:11.270Z,71.52
2023-04-06T09:57:16.001Z,72.52
2023-04-06T10:02:13.167Z,73.62
2023-04-06T10:07:07.284Z,73.62
2023-04-06T10:12:03.175Z,74.71
2023-04-06T10:17:10.047Z,75.69
2023-04-06T10:22:11.039Z,76.31
2023-04-06T10:27:10.339Z,76.80
2023-04-06T10:32:08.264Z,76.90
2023-04-06T10:37:01.049Z,78.32
2023-04-06T10:41:55.553Z,79.27
2023-04-06T10:46:57.490Z,81.35
2023-04-06T10:51:49.409Z,78.15
2023-04-06T10:56:43.926Z,79.96
2023-04-06T11:01:39.047Z,81.42
2023-04-06T11:06:34.845Z,79.85
2023-04-06T11:11:29.637Z,79.85
2023-04-06T11:16:27.087Z,80.52
2023-04-06T11:21:21.489Z,81.44
2023-04-06T11:26:16.402Z,80.92
2023-04-06T11:31:16.762Z,81.10
2023-04-06T11:36:08.161Z,81.37
2023-04-06T11:41:07.759Z,83.57
2023-04-06T11:46:09.022Z,82.56
2023-04-06T11:51:06.563Z,82.78
2023-04-06T11:56:03.089Z,81.57
2023-04-06T12:01:07.182Z,82.86
2023-04-06T12:06:00.283Z,82.22
2023-04-06T12:10:50.627Z,81.88
2023-04-06T12:15:51.193Z,82.42
2023-04-06T12:20:48.590Z,96.94
2023-04-06T12:25:42.231Z,100.00
2023-04-06T12:30:33.633Z,100.00
2023-04-06T12:35:26.472Z,100.00
2023-04-06T12:40:19.842Z,100.00
2023-04-06T12:45:14.128Z,100.00
2023-04-06T12:50:07.413Z,100.00
2023-04-06T12:54:59.002Z,100.00
2023-04-06T12:59:54.314Z,100.00
2023-04-06T13:04:47.186Z,100.00
2023-04-06T13:09:51.322Z,100.00
2023-04-06T13:14:43.665Z,100.00
2023-04-06T13:19:42.872Z,100.00
2023-04-06T13:24:37.777Z,99.69
2023-04-06T13:29:36.042Z,99.54
2023-04-06T13:34:29.724Z,99.50
2023-04-06T13:39:23.792Z,98.11
2023-04-06T13:44:19.723Z,96.48
2023-04-06T13:49:11.070Z,97.59
2023-04-06T13:54:04.203Z,95.99
2023-04-06T13:58:57.860Z,96.78
2023-04-06T14:03:52.291Z,96.71
2023-04-06T14:08:43.241Z,96.59
2023-04-06T14:13:35.806Z,94.41
2023-04-06T14:18:35.500Z,93.45
2023-04-06T14:23:27.197Z,94.63
2023-04-06T14:28:20.438Z,93.51
2023-04-06T14:33:13.698Z,95.79
2023-04-06T14:38:07.000Z,92.98
2023-04-06T14:43:03.552Z,96.28
2023-04-06T14:47:54.307Z,95.95
2023-04-06T14:52:44.530Z,94.66
2023-04-06T14:57:41.353Z,94.99
2023-04-06T15:02:40.835Z,94.78
2023-04-06T15:07:33.563Z,94.56
2023-04-06T15:12:24.292Z,94.55
2023-04-06T15:17:18.172Z,94.93
2023-04-06T15:22:12.748Z,94.89
2023-04-06T15:27:03.786Z,92.55
2023-04-06T15:31:54.119Z,94.11
2023-04-06T15:36:48.462Z,92.33
2023-04-06T15:41:40.857Z,92.12
2023-04-06T15:46:37.282Z,94.11
2023-04-06T15:51:28.930Z,93.70
2023-04-06T15:56:22.792Z,93.91
2023-04-06T16:01:18.738Z,93.60
2023-04-06T16:06:10.466Z,94.50
2023-04-06T16:11:03.821Z,96.47
2023-04-06T16:15:57.419Z,96.88
2023-04-06T16:20:52.980Z,93.23
2023-04-06T16:25:46.207Z,94.96
2023-04-06T16:30:41.102Z,93.50
2023-04-06T16:35:36.813Z,95.20
2023-04-06T16:40:34.373Z,93.62
2023-04-06T16:45:34.644Z,93.48
2023-04-06T16:50:35.719Z,92.85
2023-04-06T16:55:46.628Z,96.49
2023-04-06T17:00:41.194Z,94.04
2023-04-06T17:05:44.628Z,91.96
2023-04-06T17:10:41.913Z,93.52
2023-04-06T17:15:49.300Z,95.14
2023-04-06T17:20:43.089Z,93.69
2023-04-06T17:25:34.527Z,95.13
2023-04-06T17:30:28.758Z,94.99
2023-04-06T17:35:20.713Z,94.76
2023-04-06T17:40:15.265Z,94.22
2023-04-06T17:45:11.119Z,96.34
2023-04-06T17:50:11.206Z,96.30
2023-04-06T17:55:02.175Z,96.13
2023-04-06T17:59:54.901Z,95.94
2023-04-06T18:04:47.851Z,96.09
2023-04-06T18:09:41.493Z,95.87
2023-04-06T18:14:34.408Z,96.62
2023-04-06T18:19:24.948Z,96.45
2023-04-06T18:24:27.244Z,98.34
2023-04-06T18:29:51.239Z,100.00
2023-04-06T18:34:40.589Z,90.82
2023-04-06T18:39:33.872Z,91.02
2023-04-06T18:44:32.334Z,93.43
2023-04-06T18:49:25.167Z,93.58
2023-04-06T18:54:17.450Z,93.69
2023-04-06T18:59:09.384Z,93.55
2023-04-06T19:04:06.849Z,94.12
2023-04-06T19:08:59.601Z,94.29
2023-04-06T19:13:53.319Z,93.31
2023-04-06T19:18:46.437Z,92.55
2023-04-06T19:23:42.547Z,93.60
2023-04-06T19:28:35.072Z,92.52
2023-04-06T19:33:27.148Z,93.42
2023-04-06T19:38:18.963Z,93.78
2023-04-06T19:43:12.316Z,94.33
2023-04-06T19:48:03.672Z,100.00
2023-04-06T19:52:55.994Z,100.00
2023-04-06T19:57:50.261Z,100.00
2023-04-06T20:02:45.659Z,100.00
2023-04-06T20:07:38.994Z,100.00
2023-04-06T20:12:32.584Z,100.00
2023-04-06T20:17:25.171Z,100.00
2023-04-06T20:22:19.486Z,100.00
2023-04-06T20:27:10.535Z,100.00
2023-04-06T20:32:11.843Z,99.94
2023-04-06T20:37:35.672Z,99.06
2023-04-06T20:42:27.012Z,97.74
2023-04-06T20:47:17.891Z,100.00
2023-04-06T20:52:11.711Z,100.00
2023-04-06T20:57:05.994Z,100.00
2023-04-06T21:01:57.427Z,100.00
2023-04-06T21:06:52.076Z,100.00
2023-04-06T21:11:46.618Z,100.00
2023-04-06T21:16:42.480Z,100.00
2023-04-06T21:21:35.094Z,100.00
2023-04-06T21:26:32.291Z,100.00
2023-04-06T21:31:24.231Z,100.00
2023-04-06T21:36:21.830Z,100.00
2023-04-06T21:41:14.127Z,100.00
2023-04-06T21:46:07.143Z,100.00
2023-04-06T21:50:59.394Z,100.00
2023-04-06T21:55:55.272Z,100.00
2023-04-06T22:00:47.978Z,100.00
2023-04-06T22:05:41.789Z,100.00
2023-04-06T22:10:35.667Z,100.00
2023-04-06T22:15:30.528Z,100.00
2023-04-06T22:20:22.833Z,100.00
2023-04-06T22:25:14.686Z,100.00
2023-04-06T22:30:07.735Z,100.00
2023-04-06T22:35:05.030Z,100.00
2023-04-06T22:39:56.678Z,100.00
2023-04-06T22:44:47.821Z,100.00
2023-04-06T22:49:38.807Z,100.00
2023-04-06T22:54:37.609Z,100.00
2023-04-06T22:59:28.578Z,100.00
2023-04-06T23:04:22.018Z,100.00
2023-04-06T23:09:13.308Z,100.00
2023-04-06T23:14:09.066Z,100.00
2023-04-06T23:19:02.071Z,100.00
2023-04-06T23:23:53.302Z,100.00
2023-04-06T23:28:44.709Z,100.00
2023-04-06T23:33:40.386Z,100.00
2023-04-06T23:38:32.476Z,100.00
2023-04-06T23:43:24.492Z,100.00
2023-04-06T23:48:16.328Z,100.00
2023-04-06T23:53:14.492Z,100.00
2023-04-06T23:58:06.288Z,100.00
